sensor_id;sensor_type;location;lat;lon;timestamp;P1;durP1;ratioP1;P2;durP2;ratioP2
27580;SDS011;63557;52.302;7.964;2023-09-19T00:00:33;14.77;;;5.70;;
27580;SDS011;63557;52.302;7.964;2023-09-19T00:05:34;11.02;;;4.63;;
27580;SDS011;63557;52.302;7.964;2023-09-19T00:10:35;18.90;;;5.00;;
27580;SDS011;63557;52.302;7.964;2023-09-19T00:15:36;13.60;;;4.95;;
27580;SDS011;63557;52.302;7.964;2023-09-19T00:20:37;12.65;;;4.65;;
27580;SDS011;63557;52.302;7.964;2023-09-19T00:25:38;15.40;;;4.55;;
27580;SDS011;63557;52.302;7.964;2023-09-19T00:30:38;15.37;;;4.40;;
27580;SDS011;63557;52.302;7.964;2023-09-19T00:35:39;21.92;;;4.55;;
27580;SDS011;63557;52.302;7.964;2023-09-19T00:40:49;12.05;;;4.28;;
27580;SDS011;63557;52.302;7.964;2023-09-19T00:45:52;15.47;;;4.47;;
27580;SDS011;63557;52.302;7.964;2023-09-19T00:50:53;12.80;;;4.85;;
27580;SDS011;63557;52.302;7.964;2023-09-19T00:55:54;11.63;;;4.57;;
27580;SDS011;63557;52.302;7.964;2023-09-19T01:00:56;19.40;;;5.28;;
27580;SDS011;63557;52.302;7.964;2023-09-19T01:05:57;14.43;;;4.50;;
27580;SDS011;63557;52.302;7.964;2023-09-19T01:11:43;21.70;;;5.30;;
27580;SDS011;63557;52.302;7.964;2023-09-19T01:16:32;19.13;;;5.35;;
27580;SDS011;63557;52.302;7.964;2023-09-19T01:32:05;17.00;;;4.68;;
27580;SDS011;63557;52.302;7.964;2023-09-19T01:37:06;15.25;;;4.65;;
27580;SDS011;63557;52.302;7.964;2023-09-19T01:47:09;17.38;;;5.07;;
27580;SDS011;63557;52.302;7.964;2023-09-19T01:52:14;18.73;;;4.63;;
27580;SDS011;63557;52.302;7.964;2023-09-19T02:02:20;21.15;;;5.05;;
27580;SDS011;63557;52.302;7.964;2023-09-19T02:07:22;20.30;;;4.75;;
27580;SDS011;63557;52.302;7.964;2023-09-19T02:12:24;27.10;;;5.93;;
27580;SDS011;63557;52.302;7.964;2023-09-19T02:17:25;15.00;;;5.10;;
27580;SDS011;63557;52.302;7.964;2023-09-19T02:22:28;16.98;;;4.60;;
27580;SDS011;63557;52.302;7.964;2023-09-19T02:27:30;13.93;;;4.82;;
27580;SDS011;63557;52.302;7.964;2023-09-19T02:32:32;14.60;;;3.85;;
27580;SDS011;63557;52.302;7.964;2023-09-19T02:37:35;20.67;;;4.40;;
27580;SDS011;63557;52.302;7.964;2023-09-19T02:42:36;17.02;;;5.25;;
27580;SDS011;63557;52.302;7.964;2023-09-19T02:47:36;19.03;;;5.07;;
27580;SDS011;63557;52.302;7.964;2023-09-19T02:52:37;17.37;;;4.67;;
27580;SDS011;63557;52.302;7.964;2023-09-19T02:57:37;18.00;;;4.05;;
27580;SDS011;63557;52.302;7.964;2023-09-19T03:02:41;12.63;;;4.13;;
27580;SDS011;63557;52.302;7.964;2023-09-19T03:07:41;13.10;;;4.10;;
27580;SDS011;63557;52.302;7.964;2023-09-19T03:12:43;19.17;;;4.80;;
27580;SDS011;63557;52.302;7.964;2023-09-19T03:17:44;19.90;;;5.22;;
27580;SDS011;63557;52.302;7.964;2023-09-19T03:22:45;16.92;;;4.85;;
27580;SDS011;63557;52.302;7.964;2023-09-19T03:27:46;14.07;;;5.10;;
27580;SDS011;63557;52.302;7.964;2023-09-19T03:32:48;20.15;;;5.28;;
27580;SDS011;63557;52.302;7.964;2023-09-19T03:37:50;16.80;;;5.03;;
27580;SDS011;63557;52.302;7.964;2023-09-19T03:42:53;16.10;;;4.47;;
27580;SDS011;63557;52.302;7.964;2023-09-19T03:47:53;23.50;;;4.70;;
27580;SDS011;63557;52.302;7.964;2023-09-19T03:52:57;20.23;;;5.38;;
27580;SDS011;63557;52.302;7.964;2023-09-19T03:57:58;14.70;;;4.57;;
27580;SDS011;63557;52.302;7.964;2023-09-19T04:02:58;15.85;;;5.07;;
27580;SDS011;63557;52.302;7.964;2023-09-19T04:08:01;22.88;;;5.55;;
27580;SDS011;63557;52.302;7.964;2023-09-19T04:13:01;18.67;;;5.35;;
27580;SDS011;63557;52.302;7.964;2023-09-19T04:18:02;26.60;;;5.47;;
27580;SDS011;63557;52.302;7.964;2023-09-19T04:23:03;21.33;;;4.47;;
27580;SDS011;63557;52.302;7.964;2023-09-19T04:28:06;20.80;;;4.78;;
27580;SDS011;63557;52.302;7.964;2023-09-19T04:33:06;13.90;;;4.57;;
27580;SDS011;63557;52.302;7.964;2023-09-19T04:38:07;21.83;;;4.63;;
27580;SDS011;63557;52.302;7.964;2023-09-19T04:43:07;15.77;;;4.70;;
27580;SDS011;63557;52.302;7.964;2023-09-19T04:48:07;16.98;;;3.97;;
27580;SDS011;63557;52.302;7.964;2023-09-19T04:53:08;21.80;;;5.07;;
27580;SDS011;63557;52.302;7.964;2023-09-19T04:58:09;23.30;;;4.13;;
27580;SDS011;63557;52.302;7.964;2023-09-19T05:03:10;18.05;;;4.32;;
27580;SDS011;63557;52.302;7.964;2023-09-19T05:08:10;15.32;;;4.55;;
27580;SDS011;63557;52.302;7.964;2023-09-19T05:13:11;16.67;;;3.93;;
27580;SDS011;63557;52.302;7.964;2023-09-19T05:18:12;19.52;;;4.32;;
27580;SDS011;63557;52.302;7.964;2023-09-19T05:23:12;22.40;;;4.50;;
27580;SDS011;63557;52.302;7.964;2023-09-19T05:28:13;20.23;;;4.60;;
27580;SDS011;63557;52.302;7.964;2023-09-19T05:33:15;23.38;;;4.60;;
27580;SDS011;63557;52.302;7.964;2023-09-19T05:38:15;22.45;;;4.28;;
27580;SDS011;63557;52.302;7.964;2023-09-19T05:43:19;14.85;;;3.65;;
27580;SDS011;63557;52.302;7.964;2023-09-19T05:48:19;16.80;;;3.67;;
27580;SDS011;63557;52.302;7.964;2023-09-19T05:53:21;16.00;;;3.30;;
27580;SDS011;63557;52.302;7.964;2023-09-19T05:58:23;19.33;;;3.60;;
27580;SDS011;63557;52.302;7.964;2023-09-19T06:03:23;12.13;;;3.07;;
27580;SDS011;63557;52.302;7.964;2023-09-19T06:08:24;21.47;;;3.40;;
27580;SDS011;63557;52.302;7.964;2023-09-19T06:13:29;16.73;;;3.50;;
27580;SDS011;63557;52.302;7.964;2023-09-19T06:18:29;18.88;;;3.78;;
27580;SDS011;63557;52.302;7.964;2023-09-19T06:23:34;15.50;;;3.97;;
27580;SDS011;63557;52.302;7.964;2023-09-19T06:28:35;15.75;;;3.30;;
27580;SDS011;63557;52.302;7.964;2023-09-19T06:33:38;18.88;;;3.85;;
27580;SDS011;63557;52.302;7.964;2023-09-19T06:38:39;11.65;;;3.10;;
27580;SDS011;63557;52.302;7.964;2023-09-19T06:43:41;15.90;;;3.47;;
27580;SDS011;63557;52.302;7.964;2023-09-19T06:48:41;21.80;;;3.93;;
27580;SDS011;63557;52.302;7.964;2023-09-19T06:53:44;13.93;;;3.83;;
27580;SDS011;63557;52.302;7.964;2023-09-19T06:58:44;9.73;;;3.20;;
27580;SDS011;63557;52.302;7.964;2023-09-19T07:03:45;18.85;;;3.63;;
27580;SDS011;63557;52.302;7.964;2023-09-19T07:08:46;16.20;;;3.22;;
27580;SDS011;63557;52.302;7.964;2023-09-19T07:13:46;12.80;;;3.60;;
27580;SDS011;63557;52.302;7.964;2023-09-19T07:18:47;10.35;;;3.08;;
27580;SDS011;63557;52.302;7.964;2023-09-19T07:23:48;14.77;;;3.33;;
27580;SDS011;63557;52.302;7.964;2023-09-19T07:28:48;20.45;;;3.28;;
27580;SDS011;63557;52.302;7.964;2023-09-19T07:33:49;11.03;;;2.70;;
27580;SDS011;63557;52.302;7.964;2023-09-19T07:38:49;16.98;;;3.78;;
27580;SDS011;63557;52.302;7.964;2023-09-19T07:43:50;12.60;;;3.63;;
27580;SDS011;63557;52.302;7.964;2023-09-19T07:48:50;11.70;;;3.33;;
27580;SDS011;63557;52.302;7.964;2023-09-19T07:53:50;10.90;;;3.13;;
27580;SDS011;63557;52.302;7.964;2023-09-19T07:58:51;15.73;;;3.07;;
27580;SDS011;63557;52.302;7.964;2023-09-19T08:03:52;16.00;;;4.13;;
27580;SDS011;63557;52.302;7.964;2023-09-19T08:08:53;10.88;;;3.05;;
27580;SDS011;63557;52.302;7.964;2023-09-19T08:13:54;11.82;;;2.70;;
27580;SDS011;63557;52.302;7.964;2023-09-19T08:18:54;14.20;;;3.63;;
27580;SDS011;63557;52.302;7.964;2023-09-19T08:23:55;9.65;;;3.00;;
27580;SDS011;63557;52.302;7.964;2023-09-19T08:28:56;18.05;;;3.65;;
27580;SDS011;63557;52.302;7.964;2023-09-19T08:33:57;23.52;;;5.65;;
27580;SDS011;63557;52.302;7.964;2023-09-19T08:38:57;15.60;;;3.50;;
27580;SDS011;63557;52.302;7.964;2023-09-19T08:43:58;16.27;;;3.53;;
27580;SDS011;63557;52.302;7.964;2023-09-19T08:49:03;13.68;;;3.45;;
27580;SDS011;63557;52.302;7.964;2023-09-19T08:54:07;14.20;;;3.72;;
27580;SDS011;63557;52.302;7.964;2023-09-19T08:59:08;13.15;;;3.47;;
27580;SDS011;63557;52.302;7.964;2023-09-19T09:04:09;15.63;;;3.35;;
27580;SDS011;63557;52.302;7.964;2023-09-19T09:09:13;20.58;;;3.78;;
27580;SDS011;63557;52.302;7.964;2023-09-19T09:14:13;18.58;;;3.83;;
27580;SDS011;63557;52.302;7.964;2023-09-19T09:19:14;10.63;;;2.90;;
27580;SDS011;63557;52.302;7.964;2023-09-19T09:24:30;17.17;;;3.50;;
27580;SDS011;63557;52.302;7.964;2023-09-19T09:34:40;11.05;;;3.28;;
27580;SDS011;63557;52.302;7.964;2023-09-19T09:39:42;14.75;;;4.15;;
27580;SDS011;63557;52.302;7.964;2023-09-19T09:44:55;15.40;;;3.60;;
27580;SDS011;63557;52.302;7.964;2023-09-19T09:50:12;14.73;;;3.75;;
27580;SDS011;63557;52.302;7.964;2023-09-19T09:55:17;15.77;;;3.50;;
27580;SDS011;63557;52.302;7.964;2023-09-19T10:00:20;14.75;;;3.90;;
27580;SDS011;63557;52.302;7.964;2023-09-19T10:05:21;13.57;;;3.40;;
27580;SDS011;63557;52.302;7.964;2023-09-19T10:15:38;12.00;;;3.35;;
27580;SDS011;63557;52.302;7.964;2023-09-19T10:20:41;9.40;;;3.05;;
27580;SDS011;63557;52.302;7.964;2023-09-19T10:25:44;9.73;;;3.55;;
27580;SDS011;63557;52.302;7.964;2023-09-19T10:30:49;14.07;;;4.00;;
27580;SDS011;63557;52.302;7.964;2023-09-19T10:35:50;13.63;;;3.80;;
27580;SDS011;63557;52.302;7.964;2023-09-19T10:46:03;10.00;;;3.50;;
27580;SDS011;63557;52.302;7.964;2023-09-19T10:51:16;10.95;;;3.47;;
27580;SDS011;63557;52.302;7.964;2023-09-19T10:56:22;14.70;;;3.38;;
27580;SDS011;63557;52.302;7.964;2023-09-19T11:01:23;11.20;;;3.50;;
27580;SDS011;63557;52.302;7.964;2023-09-19T11:06:41;13.68;;;3.45;;
27580;SDS011;63557;52.302;7.964;2023-09-19T11:11:42;8.33;;;2.70;;
27580;SDS011;63557;52.302;7.964;2023-09-19T11:22:02;15.25;;;3.70;;
27580;SDS011;63557;52.302;7.964;2023-09-19T11:27:09;11.47;;;2.97;;
27580;SDS011;63557;52.302;7.964;2023-09-19T11:32:10;18.27;;;4.13;;
27580;SDS011;63557;52.302;7.964;2023-09-19T11:47:33;10.65;;;3.40;;
27580;SDS011;63557;52.302;7.964;2023-09-19T11:52:35;14.52;;;3.90;;
27580;SDS011;63557;52.302;7.964;2023-09-19T11:57:37;13.82;;;4.00;;
27580;SDS011;63557;52.302;7.964;2023-09-19T12:02:39;14.13;;;3.35;;
27580;SDS011;63557;52.302;7.964;2023-09-19T12:07:43;12.88;;;3.45;;
27580;SDS011;63557;52.302;7.964;2023-09-19T12:12:48;12.43;;;4.10;;
27580;SDS011;63557;52.302;7.964;2023-09-19T12:17:49;10.95;;;3.83;;
27580;SDS011;63557;52.302;7.964;2023-09-19T12:22:50;10.68;;;3.25;;
27580;SDS011;63557;52.302;7.964;2023-09-19T12:27:50;12.10;;;3.50;;
27580;SDS011;63557;52.302;7.964;2023-09-19T12:32:53;10.55;;;2.85;;
27580;SDS011;63557;52.302;7.964;2023-09-19T12:37:54;15.57;;;3.95;;
27580;SDS011;63557;52.302;7.964;2023-09-19T12:42:55;11.50;;;3.22;;
27580;SDS011;63557;52.302;7.964;2023-09-19T12:53:24;8.13;;;3.53;;
27580;SDS011;63557;52.302;7.964;2023-09-19T12:58:26;12.15;;;3.58;;
27580;SDS011;63557;52.302;7.964;2023-09-19T13:03:27;9.25;;;2.63;;
27580;SDS011;63557;52.302;7.964;2023-09-19T13:08:31;9.87;;;2.83;;
27580;SDS011;63557;52.302;7.964;2023-09-19T13:13:45;13.73;;;3.45;;
27580;SDS011;63557;52.302;7.964;2023-09-19T13:18:49;10.70;;;3.10;;
27580;SDS011;63557;52.302;7.964;2023-09-19T13:23:54;9.90;;;2.50;;
27580;SDS011;63557;52.302;7.964;2023-09-19T13:28:59;8.43;;;2.65;;
27580;SDS011;63557;52.302;7.964;2023-09-19T13:33:59;12.43;;;3.20;;
27580;SDS011;63557;52.302;7.964;2023-09-19T13:39:00;13.07;;;3.07;;
27580;SDS011;63557;52.302;7.964;2023-09-19T13:44:00;13.03;;;4.30;;
27580;SDS011;63557;52.302;7.964;2023-09-19T13:49:01;11.93;;;3.07;;
27580;SDS011;63557;52.302;7.964;2023-09-19T13:54:03;7.55;;;2.65;;
27580;SDS011;63557;52.302;7.964;2023-09-19T13:59:03;10.83;;;3.40;;
27580;SDS011;63557;52.302;7.964;2023-09-19T14:04:04;15.20;;;3.70;;
27580;SDS011;63557;52.302;7.964;2023-09-19T14:09:05;10.55;;;3.05;;
27580;SDS011;63557;52.302;7.964;2023-09-19T14:14:08;11.82;;;3.05;;
27580;SDS011;63557;52.302;7.964;2023-09-19T14:19:08;12.03;;;3.63;;
27580;SDS011;63557;52.302;7.964;2023-09-19T14:24:08;8.75;;;3.00;;
27580;SDS011;63557;52.302;7.964;2023-09-19T14:29:12;10.63;;;3.03;;
27580;SDS011;63557;52.302;7.964;2023-09-19T14:34:13;12.32;;;3.35;;
27580;SDS011;63557;52.302;7.964;2023-09-19T14:39:15;8.90;;;2.70;;
27580;SDS011;63557;52.302;7.964;2023-09-19T14:44:15;9.40;;;3.63;;
27580;SDS011;63557;52.302;7.964;2023-09-19T14:49:16;9.10;;;3.22;;
27580;SDS011;63557;52.302;7.964;2023-09-19T14:54:17;9.50;;;3.40;;
27580;SDS011;63557;52.302;7.964;2023-09-19T14:59:17;15.30;;;3.03;;
27580;SDS011;63557;52.302;7.964;2023-09-19T15:04:17;9.03;;;3.30;;
27580;SDS011;63557;52.302;7.964;2023-09-19T15:09:18;9.03;;;2.53;;
27580;SDS011;63557;52.302;7.964;2023-09-19T15:14:19;7.47;;;2.80;;
27580;SDS011;63557;52.302;7.964;2023-09-19T15:19:19;7.45;;;3.10;;
27580;SDS011;63557;52.302;7.964;2023-09-19T15:24:21;8.85;;;3.08;;
27580;SDS011;63557;52.302;7.964;2023-09-19T15:29:22;6.20;;;2.65;;
27580;SDS011;63557;52.302;7.964;2023-09-19T15:34:23;7.70;;;2.50;;
27580;SDS011;63557;52.302;7.964;2023-09-19T15:39:24;15.95;;;3.50;;
27580;SDS011;63557;52.302;7.964;2023-09-19T15:44:24;4.87;;;2.10;;
27580;SDS011;63557;52.302;7.964;2023-09-19T15:49:27;6.60;;;2.30;;
27580;SDS011;63557;52.302;7.964;2023-09-19T15:54:27;10.47;;;2.30;;
27580;SDS011;63557;52.302;7.964;2023-09-19T15:59:27;11.10;;;2.88;;
27580;SDS011;63557;52.302;7.964;2023-09-19T16:04:30;11.50;;;2.25;;
27580;SDS011;63557;52.302;7.964;2023-09-19T16:09:31;6.10;;;2.25;;
27580;SDS011;63557;52.302;7.964;2023-09-19T16:14:31;8.80;;;2.33;;
27580;SDS011;63557;52.302;7.964;2023-09-19T16:19:31;6.30;;;1.77;;
27580;SDS011;63557;52.302;7.964;2023-09-19T16:24:33;10.57;;;2.37;;
27580;SDS011;63557;52.302;7.964;2023-09-19T16:29:34;4.80;;;1.85;;
27580;SDS011;63557;52.302;7.964;2023-09-19T16:34:34;5.47;;;2.47;;
27580;SDS011;63557;52.302;7.964;2023-09-19T16:39:35;6.20;;;1.70;;
27580;SDS011;63557;52.302;7.964;2023-09-19T16:44:35;5.47;;;2.40;;
27580;SDS011;63557;52.302;7.964;2023-09-19T16:49:36;10.65;;;2.70;;
27580;SDS011;63557;52.302;7.964;2023-09-19T16:54:36;5.43;;;2.10;;
27580;SDS011;63557;52.302;7.964;2023-09-19T16:59:36;3.90;;;1.93;;
27580;SDS011;63557;52.302;7.964;2023-09-19T17:04:37;5.57;;;1.63;;
27580;SDS011;63557;52.302;7.964;2023-09-19T17:09:37;5.00;;;1.50;;
27580;SDS011;63557;52.302;7.964;2023-09-19T17:14:39;4.90;;;1.60;;
27580;SDS011;63557;52.302;7.964;2023-09-19T17:19:39;5.93;;;1.80;;
27580;SDS011;63557;52.302;7.964;2023-09-19T17:24:39;5.13;;;1.80;;
27580;SDS011;63557;52.302;7.964;2023-09-19T17:29:40;7.53;;;2.83;;
27580;SDS011;63557;52.302;7.964;2023-09-19T17:34:40;4.07;;;1.80;;
27580;SDS011;63557;52.302;7.964;2023-09-19T17:39:40;5.07;;;2.07;;
27580;SDS011;63557;52.302;7.964;2023-09-19T17:44:41;7.68;;;2.03;;
27580;SDS011;63557;52.302;7.964;2023-09-19T17:49:41;8.57;;;2.83;;
27580;SDS011;63557;52.302;7.964;2023-09-19T17:54:44;8.48;;;2.75;;
27580;SDS011;63557;52.302;7.964;2023-09-19T17:59:45;9.40;;;3.25;;
27580;SDS011;63557;52.302;7.964;2023-09-19T18:04:45;3.88;;;2.00;;
27580;SDS011;63557;52.302;7.964;2023-09-19T18:09:46;8.02;;;2.20;;
27580;SDS011;63557;52.302;7.964;2023-09-19T18:14:47;3.53;;;2.03;;
27580;SDS011;63557;52.302;7.964;2023-09-19T18:19:47;7.47;;;2.30;;
27580;SDS011;63557;52.302;7.964;2023-09-19T18:24:50;5.38;;;1.63;;
27580;SDS011;63557;52.302;7.964;2023-09-19T18:29:50;6.73;;;2.10;;
27580;SDS011;63557;52.302;7.964;2023-09-19T18:34:51;5.70;;;1.75;;
27580;SDS011;63557;52.302;7.964;2023-09-19T18:39:51;6.57;;;1.87;;
27580;SDS011;63557;52.302;7.964;2023-09-19T18:44:52;8.40;;;2.13;;
27580;SDS011;63557;52.302;7.964;2023-09-19T18:49:52;3.40;;;2.13;;
27580;SDS011;63557;52.302;7.964;2023-09-19T18:54:53;9.52;;;2.50;;
27580;SDS011;63557;52.302;7.964;2023-09-19T18:59:53;10.50;;;2.30;;
27580;SDS011;63557;52.302;7.964;2023-09-19T19:04:54;7.70;;;1.93;;
27580;SDS011;63557;52.302;7.964;2023-09-19T19:09:54;8.02;;;1.92;;
27580;SDS011;63557;52.302;7.964;2023-09-19T19:14:55;7.43;;;2.40;;
27580;SDS011;63557;52.302;7.964;2023-09-19T19:19:56;4.90;;;2.13;;
27580;SDS011;63557;52.302;7.964;2023-09-19T19:24:56;4.35;;;1.70;;
27580;SDS011;63557;52.302;7.964;2023-09-19T19:29:57;7.68;;;2.15;;
27580;SDS011;63557;52.302;7.964;2023-09-19T19:34:57;5.80;;;2.17;;
27580;SDS011;63557;52.302;7.964;2023-09-19T19:39:58;7.10;;;2.47;;
27580;SDS011;63557;52.302;7.964;2023-09-19T19:44:59;10.10;;;2.45;;
27580;SDS011;63557;52.302;7.964;2023-09-19T19:50:00;12.53;;;2.30;;
27580;SDS011;63557;52.302;7.964;2023-09-19T19:55:00;8.25;;;2.53;;
27580;SDS011;63557;52.302;7.964;2023-09-19T20:00:01;6.03;;;1.93;;
27580;SDS011;63557;52.302;7.964;2023-09-19T20:05:01;10.30;;;2.75;;
27580;SDS011;63557;52.302;7.964;2023-09-19T20:10:06;4.88;;;1.90;;
27580;SDS011;63557;52.302;7.964;2023-09-19T20:15:07;10.27;;;2.65;;
27580;SDS011;63557;52.302;7.964;2023-09-19T20:20:10;7.50;;;2.75;;
27580;SDS011;63557;52.302;7.964;2023-09-19T20:25:18;6.70;;;2.38;;
27580;SDS011;63557;52.302;7.964;2023-09-19T20:30:18;6.93;;;2.47;;
27580;SDS011;63557;52.302;7.964;2023-09-19T20:35:19;9.70;;;2.83;;
27580;SDS011;63557;52.302;7.964;2023-09-19T20:40:20;5.20;;;2.25;;
27580;SDS011;63557;52.302;7.964;2023-09-19T20:45:22;4.75;;;2.08;;
27580;SDS011;63557;52.302;7.964;2023-09-19T20:50:22;8.83;;;2.70;;
27580;SDS011;63557;52.302;7.964;2023-09-19T20:55:23;8.33;;;2.37;;
27580;SDS011;63557;52.302;7.964;2023-09-19T21:00:24;5.70;;;2.42;;
27580;SDS011;63557;52.302;7.964;2023-09-19T21:05:24;5.50;;;2.10;;
27580;SDS011;63557;52.302;7.964;2023-09-19T21:10:28;7.70;;;2.22;;
27580;SDS011;63557;52.302;7.964;2023-09-19T21:15:28;6.32;;;2.00;;
27580;SDS011;63557;52.302;7.964;2023-09-19T21:20:29;8.33;;;2.70;;
27580;SDS011;63557;52.302;7.964;2023-09-19T21:25:29;6.40;;;2.22;;
27580;SDS011;63557;52.302;7.964;2023-09-19T21:30:29;9.55;;;2.50;;
27580;SDS011;63557;52.302;7.964;2023-09-19T21:35:30;6.95;;;2.40;;
27580;SDS011;63557;52.302;7.964;2023-09-19T21:40:30;5.30;;;2.47;;
27580;SDS011;63557;52.302;7.964;2023-09-19T21:45:34;3.93;;;2.23;;
27580;SDS011;63557;52.302;7.964;2023-09-19T21:50:35;9.23;;;2.83;;
27580;SDS011;63557;52.302;7.964;2023-09-19T21:55:36;8.07;;;2.65;;
27580;SDS011;63557;52.302;7.964;2023-09-19T22:00:37;8.13;;;2.90;;
27580;SDS011;63557;52.302;7.964;2023-09-19T22:05:45;6.32;;;2.88;;
27580;SDS011;63557;52.302;7.964;2023-09-19T22:10:46;8.87;;;2.63;;
27580;SDS011;63557;52.302;7.964;2023-09-19T22:15:54;7.43;;;2.78;;
27580;SDS011;63557;52.302;7.964;2023-09-19T22:20:56;8.63;;;2.90;;
27580;SDS011;63557;52.302;7.964;2023-09-19T22:26:02;7.88;;;2.45;;
27580;SDS011;63557;52.302;7.964;2023-09-19T22:31:03;9.90;;;2.53;;
27580;SDS011;63557;52.302;7.964;2023-09-19T22:36:06;9.57;;;2.80;;
27580;SDS011;63557;52.302;7.964;2023-09-19T22:41:07;8.48;;;2.55;;
27580;SDS011;63557;52.302;7.964;2023-09-19T22:46:16;5.03;;;2.55;;
27580;SDS011;63557;52.302;7.964;2023-09-19T22:51:18;5.38;;;2.70;;
27580;SDS011;63557;52.302;7.964;2023-09-19T22:56:36;6.03;;;2.70;;
27580;SDS011;63557;52.302;7.964;2023-09-19T23:01:36;10.68;;;2.97;;
27580;SDS011;63557;52.302;7.964;2023-09-19T23:06:41;7.70;;;2.47;;
27580;SDS011;63557;52.302;7.964;2023-09-19T23:11:43;8.15;;;2.92;;
27580;SDS011;63557;52.302;7.964;2023-09-19T23:16:44;8.35;;;3.13;;
27580;SDS011;63557;52.302;7.964;2023-09-19T23:21:47;6.05;;;3.00;;
27580;SDS011;63557;52.302;7.964;2023-09-19T23:26:51;6.05;;;2.60;;
27580;SDS011;63557;52.302;7.964;2023-09-19T23:31:58;11.52;;;3.30;;
27580;SDS011;63557;52.302;7.964;2023-09-19T23:36:58;11.67;;;3.00;;
27580;SDS011;63557;52.302;7.964;2023-09-19T23:41:59;7.97;;;2.67;;
27580;SDS011;63557;52.302;7.964;2023-09-19T23:47:01;6.25;;;2.78;;
27580;SDS011;63557;52.302;7.964;2023-09-19T23:52:01;7.78;;;2.97;;
27580;SDS011;63557;52.302;7.964;2023-09-19T23:57:02;6.13;;;2.72;;
